sensor_id;sensor_type;location;lat;lon;timestamp;P1;durP1;ratioP1;P2;durP2;ratioP2
38901;SDS011;24661;53.566;9.910;2022-07-25T00:01:53;7.57;;;6.63;;
38901;SDS011;24661;53.566;9.910;2022-07-25T00:04:18;9.43;;;8.30;;
38901;SDS011;24661;53.566;9.910;2022-07-25T00:06:44;9.33;;;6.57;;
38901;SDS011;24661;53.566;9.910;2022-07-25T00:09:10;7.80;;;7.00;;
38901;SDS011;24661;53.566;9.910;2022-07-25T00:11:36;6.90;;;6.20;;
38901;SDS011;24661;53.566;9.910;2022-07-25T00:14:02;9.63;;;7.33;;
38901;SDS011;24661;53.566;9.910;2022-07-25T00:16:28;10.70;;;7.17;;
38901;SDS011;24661;53.566;9.910;2022-07-25T00:18:54;8.70;;;6.83;;
38901;SDS011;24661;53.566;9.910;2022-07-25T00:21:20;7.37;;;6.57;;
38901;SDS011;24661;53.566;9.910;2022-07-25T00:23:45;9.10;;;6.83;;
38901;SDS011;24661;53.566;9.910;2022-07-25T00:26:11;10.20;;;6.60;;
38901;SDS011;24661;53.566;9.910;2022-07-25T00:28:37;8.53;;;6.67;;
38901;SDS011;24661;53.566;9.910;2022-07-25T00:31:02;6.33;;;5.73;;
38901;SDS011;24661;53.566;9.910;2022-07-25T00:33:28;9.30;;;7.40;;
38901;SDS011;24661;53.566;9.910;2022-07-25T00:35:53;8.07;;;6.53;;
38901;SDS011;24661;53.566;9.910;2022-07-25T00:38:19;9.70;;;6.37;;
38901;SDS011;24661;53.566;9.910;2022-07-25T00:40:44;8.73;;;6.83;;
38901;SDS011;24661;53.566;9.910;2022-07-25T00:43:10;7.83;;;7.10;;
38901;SDS011;24661;53.566;9.910;2022-07-25T00:45:36;12.07;;;6.93;;
38901;SDS011;24661;53.566;9.910;2022-07-25T00:48:01;8.13;;;6.60;;
38901;SDS011;24661;53.566;9.910;2022-07-25T00:50:27;7.17;;;6.47;;
38901;SDS011;24661;53.566;9.910;2022-07-25T00:52:53;8.57;;;6.57;;
38901;SDS011;24661;53.566;9.910;2022-07-25T00:55:19;6.77;;;6.03;;
38901;SDS011;24661;53.566;9.910;2022-07-25T00:57:48;9.90;;;6.83;;
38901;SDS011;24661;53.566;9.910;2022-07-25T01:12:31;8.03;;;6.93;;
38901;SDS011;24661;53.566;9.910;2022-07-25T01:15:07;9.20;;;6.67;;
38901;SDS011;24661;53.566;9.910;2022-07-25T01:17:33;6.70;;;5.70;;
38901;SDS011;24661;53.566;9.910;2022-07-25T01:19:59;6.90;;;5.93;;
38901;SDS011;24661;53.566;9.910;2022-07-25T01:22:24;8.33;;;6.33;;
38901;SDS011;24661;53.566;9.910;2022-07-25T01:24:50;10.53;;;5.87;;
38901;SDS011;24661;53.566;9.910;2022-07-25T01:27:16;6.30;;;5.60;;
38901;SDS011;24661;53.566;9.910;2022-07-25T01:32:10;6.00;;;5.40;;
38901;SDS011;24661;53.566;9.910;2022-07-25T01:34:36;5.90;;;5.30;;
38901;SDS011;24661;53.566;9.910;2022-07-25T01:37:02;5.90;;;5.37;;
38901;SDS011;24661;53.566;9.910;2022-07-25T01:39:27;6.40;;;5.23;;
38901;SDS011;24661;53.566;9.910;2022-07-25T01:41:53;6.17;;;4.83;;
38901;SDS011;24661;53.566;9.910;2022-07-25T01:44:18;5.83;;;5.20;;
38901;SDS011;24661;53.566;9.910;2022-07-25T01:46:44;7.47;;;5.80;;
38901;SDS011;24661;53.566;9.910;2022-07-25T01:49:09;6.17;;;5.43;;
38901;SDS011;24661;53.566;9.910;2022-07-25T01:51:35;7.33;;;5.20;;
38901;SDS011;24661;53.566;9.910;2022-07-25T01:54:01;9.93;;;5.10;;
38901;SDS011;24661;53.566;9.910;2022-07-25T01:56:26;7.07;;;5.37;;
38901;SDS011;24661;53.566;9.910;2022-07-25T01:58:52;8.67;;;5.93;;
38901;SDS011;24661;53.566;9.910;2022-07-25T02:01:17;6.53;;;5.80;;
38901;SDS011;24661;53.566;9.910;2022-07-25T02:03:43;8.13;;;5.13;;
38901;SDS011;24661;53.566;9.910;2022-07-25T02:06:08;6.87;;;5.57;;
38901;SDS011;24661;53.566;9.910;2022-07-25T02:11:02;5.47;;;4.97;;
38901;SDS011;24661;53.566;9.910;2022-07-25T02:13:28;8.10;;;5.03;;
38901;SDS011;24661;53.566;9.910;2022-07-25T02:15:53;6.67;;;5.33;;
38901;SDS011;24661;53.566;9.910;2022-07-25T02:18:19;7.87;;;5.37;;
38901;SDS011;24661;53.566;9.910;2022-07-25T02:20:45;5.27;;;4.77;;
38901;SDS011;24661;53.566;9.910;2022-07-25T02:23:10;5.50;;;4.80;;
38901;SDS011;24661;53.566;9.910;2022-07-25T02:25:36;6.33;;;4.47;;
38901;SDS011;24661;53.566;9.910;2022-07-25T02:28:02;5.80;;;4.70;;
38901;SDS011;24661;53.566;9.910;2022-07-25T02:30:28;6.27;;;5.10;;
38901;SDS011;24661;53.566;9.910;2022-07-25T02:32:54;5.17;;;4.60;;
38901;SDS011;24661;53.566;9.910;2022-07-25T02:35:20;7.27;;;5.17;;
38901;SDS011;24661;53.566;9.910;2022-07-25T02:40:16;6.37;;;4.87;;
38901;SDS011;24661;53.566;9.910;2022-07-25T02:42:42;5.80;;;5.20;;
38901;SDS011;24661;53.566;9.910;2022-07-25T02:45:07;5.27;;;4.70;;
38901;SDS011;24661;53.566;9.910;2022-07-25T02:47:33;7.03;;;5.40;;
38901;SDS011;24661;53.566;9.910;2022-07-25T02:49:59;7.17;;;4.93;;
38901;SDS011;24661;53.566;9.910;2022-07-25T02:52:24;5.10;;;4.60;;
38901;SDS011;24661;53.566;9.910;2022-07-25T02:54:50;6.23;;;5.50;;
38901;SDS011;24661;53.566;9.910;2022-07-25T02:57:16;10.37;;;5.70;;
38901;SDS011;24661;53.566;9.910;2022-07-25T02:59:41;5.40;;;4.90;;
38901;SDS011;24661;53.566;9.910;2022-07-25T03:02:07;7.77;;;5.40;;
38901;SDS011;24661;53.566;9.910;2022-07-25T03:04:33;9.83;;;4.77;;
38901;SDS011;24661;53.566;9.910;2022-07-25T03:06:58;5.80;;;4.77;;
38901;SDS011;24661;53.566;9.910;2022-07-25T03:11:52;5.43;;;4.93;;
38901;SDS011;24661;53.566;9.910;2022-07-25T03:14:17;5.50;;;5.00;;
38901;SDS011;24661;53.566;9.910;2022-07-25T03:16:43;6.10;;;4.90;;
38901;SDS011;24661;53.566;9.910;2022-07-25T03:19:08;9.43;;;5.27;;
38901;SDS011;24661;53.566;9.910;2022-07-25T03:21:36;7.43;;;5.33;;
38901;SDS011;24661;53.566;9.910;2022-07-25T03:24:02;7.97;;;5.53;;
38901;SDS011;24661;53.566;9.910;2022-07-25T03:26:28;6.87;;;5.40;;
38901;SDS011;24661;53.566;9.910;2022-07-25T03:28:54;5.30;;;4.60;;
38901;SDS011;24661;53.566;9.910;2022-07-25T03:31:19;7.43;;;5.33;;
38901;SDS011;24661;53.566;9.910;2022-07-25T03:33:45;9.30;;;6.20;;
38901;SDS011;24661;53.566;9.910;2022-07-25T03:36:10;5.47;;;4.97;;
38901;SDS011;24661;53.566;9.910;2022-07-25T03:38:36;5.60;;;5.10;;
38901;SDS011;24661;53.566;9.910;2022-07-25T03:41:02;5.27;;;4.77;;
38901;SDS011;24661;53.566;9.910;2022-07-25T03:43:29;6.43;;;5.43;;
38901;SDS011;24661;53.566;9.910;2022-07-25T03:45:54;5.23;;;4.73;;
38901;SDS011;24661;53.566;9.910;2022-07-25T03:48:20;6.83;;;5.33;;
38901;SDS011;24661;53.566;9.910;2022-07-25T03:50:46;6.67;;;5.10;;
38901;SDS011;24661;53.566;9.910;2022-07-25T03:53:11;5.50;;;4.90;;
38901;SDS011;24661;53.566;9.910;2022-07-25T03:55:37;6.33;;;4.63;;
38901;SDS011;24661;53.566;9.910;2022-07-25T03:58:03;6.00;;;5.20;;
38901;SDS011;24661;53.566;9.910;2022-07-25T04:00:29;10.50;;;7.00;;
38901;SDS011;24661;53.566;9.910;2022-07-25T04:02:55;7.20;;;5.67;;
38901;SDS011;24661;53.566;9.910;2022-07-25T04:05:20;7.17;;;5.67;;
38901;SDS011;24661;53.566;9.910;2022-07-25T04:10:17;7.77;;;4.97;;
38901;SDS011;24661;53.566;9.910;2022-07-25T04:12:42;5.63;;;4.73;;
38901;SDS011;24661;53.566;9.910;2022-07-25T04:15:08;4.97;;;4.47;;
38901;SDS011;24661;53.566;9.910;2022-07-25T04:17:34;8.77;;;5.00;;
38901;SDS011;24661;53.566;9.910;2022-07-25T04:22:28;5.83;;;4.20;;
38901;SDS011;24661;53.566;9.910;2022-07-25T04:24:53;7.27;;;4.07;;
38901;SDS011;24661;53.566;9.910;2022-07-25T04:27:19;6.00;;;4.50;;
38901;SDS011;24661;53.566;9.910;2022-07-25T04:29:44;4.80;;;4.30;;
38901;SDS011;24661;53.566;9.910;2022-07-25T04:32:10;5.10;;;4.57;;
38901;SDS011;24661;53.566;9.910;2022-07-25T04:34:37;9.83;;;4.80;;
38901;SDS011;24661;53.566;9.910;2022-07-25T04:37:03;6.80;;;4.30;;
38901;SDS011;24661;53.566;9.910;2022-07-25T04:41:56;4.60;;;4.10;;
38901;SDS011;24661;53.566;9.910;2022-07-25T04:44:22;15.87;;;4.43;;
38901;SDS011;24661;53.566;9.910;2022-07-25T04:46:47;9.87;;;4.77;;
38901;SDS011;24661;53.566;9.910;2022-07-25T04:49:13;5.77;;;4.13;;
38901;SDS011;24661;53.566;9.910;2022-07-25T04:51:39;6.13;;;3.97;;
38901;SDS011;24661;53.566;9.910;2022-07-25T04:54:04;4.90;;;3.83;;
38901;SDS011;24661;53.566;9.910;2022-07-25T04:56:30;5.43;;;3.60;;
38901;SDS011;24661;53.566;9.910;2022-07-25T04:58:56;6.17;;;4.13;;
38901;SDS011;24661;53.566;9.910;2022-07-25T05:01:21;4.73;;;4.30;;
38901;SDS011;24661;53.566;9.910;2022-07-25T05:03:47;4.50;;;3.70;;
38901;SDS011;24661;53.566;9.910;2022-07-25T05:06:13;6.27;;;4.17;;
38901;SDS011;24661;53.566;9.910;2022-07-25T05:08:38;7.97;;;4.40;;
38901;SDS011;24661;53.566;9.910;2022-07-25T05:11:04;5.50;;;3.77;;
38901;SDS011;24661;53.566;9.910;2022-07-25T05:13:30;5.13;;;4.03;;
38901;SDS011;24661;53.566;9.910;2022-07-25T05:15:56;8.03;;;4.03;;
38901;SDS011;24661;53.566;9.910;2022-07-25T05:20:49;5.53;;;4.27;;
38901;SDS011;24661;53.566;9.910;2022-07-25T05:23:15;6.23;;;4.40;;
38901;SDS011;24661;53.566;9.910;2022-07-25T05:25:40;5.17;;;3.90;;
38901;SDS011;24661;53.566;9.910;2022-07-25T05:28:06;11.00;;;4.10;;
38901;SDS011;24661;53.566;9.910;2022-07-25T05:30:32;7.07;;;4.20;;
38901;SDS011;24661;53.566;9.910;2022-07-25T05:32:57;5.13;;;4.50;;
38901;SDS011;24661;53.566;9.910;2022-07-25T05:35:23;5.47;;;3.53;;
38901;SDS011;24661;53.566;9.910;2022-07-25T05:40:16;3.93;;;3.53;;
38901;SDS011;24661;53.566;9.910;2022-07-25T05:42:43;5.63;;;3.60;;
38901;SDS011;24661;53.566;9.910;2022-07-25T05:45:09;4.67;;;4.10;;
38901;SDS011;24661;53.566;9.910;2022-07-25T05:47:35;5.83;;;3.93;;
38901;SDS011;24661;53.566;9.910;2022-07-25T05:50:00;5.90;;;3.80;;
38901;SDS011;24661;53.566;9.910;2022-07-25T05:52:26;6.40;;;4.63;;
38901;SDS011;24661;53.566;9.910;2022-07-25T05:54:52;11.27;;;3.57;;
38901;SDS011;24661;53.566;9.910;2022-07-25T05:57:17;8.27;;;4.47;;
38901;SDS011;24661;53.566;9.910;2022-07-25T05:59:43;7.60;;;4.03;;
38901;SDS011;24661;53.566;9.910;2022-07-25T06:02:09;6.60;;;3.80;;
38901;SDS011;24661;53.566;9.910;2022-07-25T06:04:34;5.83;;;4.03;;
38901;SDS011;24661;53.566;9.910;2022-07-25T06:07:00;6.80;;;3.80;;
38901;SDS011;24661;53.566;9.910;2022-07-25T06:09:25;7.37;;;3.90;;
38901;SDS011;24661;53.566;9.910;2022-07-25T06:11:51;8.27;;;4.00;;
38901;SDS011;24661;53.566;9.910;2022-07-25T06:14:17;10.83;;;3.93;;
38901;SDS011;24661;53.566;9.910;2022-07-25T06:16:42;12.03;;;4.97;;
38901;SDS011;24661;53.566;9.910;2022-07-25T06:19:08;10.17;;;4.83;;
38901;SDS011;24661;53.566;9.910;2022-07-25T06:21:34;7.30;;;3.50;;
38901;SDS011;24661;53.566;9.910;2022-07-25T06:24:00;9.60;;;4.60;;
38901;SDS011;24661;53.566;9.910;2022-07-25T06:26:26;8.00;;;4.30;;
38901;SDS011;24661;53.566;9.910;2022-07-25T06:28:53;10.50;;;4.10;;
38901;SDS011;24661;53.566;9.910;2022-07-25T06:31:19;7.03;;;3.93;;
38901;SDS011;24661;53.566;9.910;2022-07-25T06:33:44;4.63;;;3.37;;
38901;SDS011;24661;53.566;9.910;2022-07-25T06:36:10;6.93;;;4.10;;
38901;SDS011;24661;53.566;9.910;2022-07-25T06:38:35;6.83;;;3.90;;
38901;SDS011;24661;53.566;9.910;2022-07-25T06:41:01;6.63;;;3.87;;
38901;SDS011;24661;53.566;9.910;2022-07-25T06:43:27;6.40;;;3.80;;
38901;SDS011;24661;53.566;9.910;2022-07-25T06:45:53;9.17;;;3.70;;
38901;SDS011;24661;53.566;9.910;2022-07-25T06:48:19;8.43;;;4.20;;
38901;SDS011;24661;53.566;9.910;2022-07-25T06:50:44;7.53;;;4.03;;
38901;SDS011;24661;53.566;9.910;2022-07-25T06:53:10;13.90;;;3.97;;
38901;SDS011;24661;53.566;9.910;2022-07-25T06:55:36;4.87;;;3.90;;
38901;SDS011;24661;53.566;9.910;2022-07-25T06:58:01;8.60;;;4.37;;
38901;SDS011;24661;53.566;9.910;2022-07-25T07:00:27;6.30;;;3.93;;
38901;SDS011;24661;53.566;9.910;2022-07-25T07:02:54;13.53;;;4.70;;
38901;SDS011;24661;53.566;9.910;2022-07-25T07:05:22;6.90;;;3.83;;
38901;SDS011;24661;53.566;9.910;2022-07-25T07:07:50;7.03;;;4.00;;
38901;SDS011;24661;53.566;9.910;2022-07-25T07:10:16;13.73;;;5.33;;
38901;SDS011;24661;53.566;9.910;2022-07-25T07:12:42;13.87;;;4.87;;
38901;SDS011;24661;53.566;9.910;2022-07-25T07:15:08;12.80;;;8.53;;
38901;SDS011;24661;53.566;9.910;2022-07-25T07:17:34;10.97;;;6.20;;
38901;SDS011;24661;53.566;9.910;2022-07-25T07:20:00;6.40;;;4.80;;
38901;SDS011;24661;53.566;9.910;2022-07-25T07:22:25;10.20;;;5.17;;
38901;SDS011;24661;53.566;9.910;2022-07-25T07:24:51;8.80;;;4.60;;
38901;SDS011;24661;53.566;9.910;2022-07-25T07:27:17;5.80;;;4.60;;
38901;SDS011;24661;53.566;9.910;2022-07-25T07:29:43;8.53;;;4.90;;
38901;SDS011;24661;53.566;9.910;2022-07-25T07:32:08;11.20;;;4.67;;
38901;SDS011;24661;53.566;9.910;2022-07-25T07:34:34;11.97;;;4.67;;
38901;SDS011;24661;53.566;9.910;2022-07-25T07:36:59;17.17;;;4.97;;
38901;SDS011;24661;53.566;9.910;2022-07-25T07:39:26;10.73;;;4.73;;
38901;SDS011;24661;53.566;9.910;2022-07-25T07:41:52;9.93;;;4.67;;
38901;SDS011;24661;53.566;9.910;2022-07-25T07:44:17;9.43;;;4.40;;
38901;SDS011;24661;53.566;9.910;2022-07-25T07:46:43;6.83;;;5.43;;
38901;SDS011;24661;53.566;9.910;2022-07-25T07:49:09;5.83;;;4.57;;
38901;SDS011;24661;53.566;9.910;2022-07-25T07:51:34;8.20;;;4.43;;
38901;SDS011;24661;53.566;9.910;2022-07-25T07:54:00;7.33;;;4.10;;
38901;SDS011;24661;53.566;9.910;2022-07-25T07:56:45;14.63;;;5.30;;
38901;SDS011;24661;53.566;9.910;2022-07-25T07:59:11;10.63;;;5.97;;
38901;SDS011;24661;53.566;9.910;2022-07-25T08:01:37;19.27;;;9.10;;
38901;SDS011;24661;53.566;9.910;2022-07-25T08:04:03;13.40;;;5.33;;
38901;SDS011;24661;53.566;9.910;2022-07-25T08:06:28;8.63;;;5.03;;
38901;SDS011;24661;53.566;9.910;2022-07-25T08:08:54;8.50;;;5.00;;
38901;SDS011;24661;53.566;9.910;2022-07-25T08:11:20;7.47;;;4.40;;
38901;SDS011;24661;53.566;9.910;2022-07-25T08:13:45;8.37;;;4.77;;
38901;SDS011;24661;53.566;9.910;2022-07-25T08:16:11;6.43;;;4.70;;
38901;SDS011;24661;53.566;9.910;2022-07-25T08:18:37;5.53;;;4.67;;
38901;SDS011;24661;53.566;9.910;2022-07-25T08:21:03;13.77;;;9.30;;
38901;SDS011;24661;53.566;9.910;2022-07-25T08:23:30;6.80;;;5.90;;
38901;SDS011;24661;53.566;9.910;2022-07-25T08:26:02;7.57;;;5.03;;
38901;SDS011;24661;53.566;9.910;2022-07-25T08:28:28;6.87;;;4.93;;
38901;SDS011;24661;53.566;9.910;2022-07-25T08:30:53;7.17;;;4.80;;
38901;SDS011;24661;53.566;9.910;2022-07-25T08:33:19;11.73;;;5.00;;
38901;SDS011;24661;53.566;9.910;2022-07-25T08:35:48;5.43;;;4.57;;
38901;SDS011;24661;53.566;9.910;2022-07-25T08:38:17;7.57;;;4.90;;
38901;SDS011;24661;53.566;9.910;2022-07-25T08:40:43;7.80;;;4.67;;
38901;SDS011;24661;53.566;9.910;2022-07-25T08:43:12;11.33;;;5.10;;
38901;SDS011;24661;53.566;9.910;2022-07-25T08:45:48;7.93;;;4.63;;
38901;SDS011;24661;53.566;9.910;2022-07-25T08:48:17;4.87;;;4.37;;
38901;SDS011;24661;53.566;9.910;2022-07-25T08:50:47;6.00;;;4.87;;
38901;SDS011;24661;53.566;9.910;2022-07-25T08:53:16;6.30;;;4.60;;
38901;SDS011;24661;53.566;9.910;2022-07-25T08:55:44;5.27;;;4.70;;
38901;SDS011;24661;53.566;9.910;2022-07-25T08:58:11;9.40;;;5.47;;
38901;SDS011;24661;53.566;9.910;2022-07-25T09:00:38;5.10;;;4.70;;
38901;SDS011;24661;53.566;9.910;2022-07-25T09:03:05;12.07;;;5.40;;
38901;SDS011;24661;53.566;9.910;2022-07-25T09:05:32;9.67;;;6.57;;
38901;SDS011;24661;53.566;9.910;2022-07-25T09:08:14;8.87;;;7.60;;
38901;SDS011;24661;53.566;9.910;2022-07-25T09:10:45;6.87;;;5.50;;
38901;SDS011;24661;53.566;9.910;2022-07-25T09:13:16;6.30;;;5.50;;
38901;SDS011;24661;53.566;9.910;2022-07-25T09:18:11;7.10;;;5.07;;
38901;SDS011;24661;53.566;9.910;2022-07-25T09:20:42;7.00;;;5.10;;
38901;SDS011;24661;53.566;9.910;2022-07-25T09:23:12;6.40;;;5.33;;
38901;SDS011;24661;53.566;9.910;2022-07-25T09:26:09;9.13;;;4.83;;
38901;SDS011;24661;53.566;9.910;2022-07-25T09:28:43;5.57;;;4.80;;
38901;SDS011;24661;53.566;9.910;2022-07-25T09:31:13;5.50;;;5.00;;
38901;SDS011;24661;53.566;9.910;2022-07-25T09:33:47;5.50;;;5.00;;
38901;SDS011;24661;53.566;9.910;2022-07-25T09:36:15;5.93;;;4.83;;
38901;SDS011;24661;53.566;9.910;2022-07-25T09:41:38;7.77;;;5.57;;
38901;SDS011;24661;53.566;9.910;2022-07-25T09:44:17;5.40;;;4.90;;
38901;SDS011;24661;53.566;9.910;2022-07-25T09:46:44;7.30;;;4.97;;
38901;SDS011;24661;53.566;9.910;2022-07-25T09:49:10;7.63;;;6.93;;
38901;SDS011;24661;53.566;9.910;2022-07-25T09:51:38;10.10;;;5.97;;
38901;SDS011;24661;53.566;9.910;2022-07-25T09:54:04;6.57;;;5.30;;
38901;SDS011;24661;53.566;9.910;2022-07-25T09:56:30;7.40;;;5.10;;
38901;SDS011;24661;53.566;9.910;2022-07-25T09:58:57;6.93;;;5.10;;
38901;SDS011;24661;53.566;9.910;2022-07-25T10:01:26;6.70;;;5.53;;
38901;SDS011;24661;53.566;9.910;2022-07-25T10:04:08;6.50;;;5.77;;
38901;SDS011;24661;53.566;9.910;2022-07-25T10:06:43;8.87;;;4.93;;
38901;SDS011;24661;53.566;9.910;2022-07-25T10:09:16;5.00;;;4.60;;
38901;SDS011;24661;53.566;9.910;2022-07-25T10:14:28;6.37;;;5.23;;
38901;SDS011;24661;53.566;9.910;2022-07-25T10:16:53;5.90;;;4.60;;
38901;SDS011;24661;53.566;9.910;2022-07-25T10:22:03;5.37;;;4.87;;
38901;SDS011;24661;53.566;9.910;2022-07-25T10:24:32;5.40;;;4.83;;
38901;SDS011;24661;53.566;9.910;2022-07-25T10:27:04;8.03;;;5.40;;
38901;SDS011;24661;53.566;9.910;2022-07-25T10:29:33;5.63;;;5.07;;
38901;SDS011;24661;53.566;9.910;2022-07-25T10:32:10;6.37;;;5.27;;
38901;SDS011;24661;53.566;9.910;2022-07-25T10:34:37;5.50;;;5.00;;
38901;SDS011;24661;53.566;9.910;2022-07-25T10:37:16;12.53;;;9.07;;
38901;SDS011;24661;53.566;9.910;2022-07-25T10:39:43;8.40;;;5.40;;
38901;SDS011;24661;53.566;9.910;2022-07-25T10:42:17;7.23;;;5.50;;
38901;SDS011;24661;53.566;9.910;2022-07-25T10:44:47;5.17;;;4.60;;
38901;SDS011;24661;53.566;9.910;2022-07-25T10:47:14;9.07;;;5.57;;
38901;SDS011;24661;53.566;9.910;2022-07-25T10:49:43;6.40;;;5.33;;
38901;SDS011;24661;53.566;9.910;2022-07-25T10:52:13;5.30;;;4.83;;
38901;SDS011;24661;53.566;9.910;2022-07-25T10:54:41;4.97;;;4.50;;
38901;SDS011;24661;53.566;9.910;2022-07-25T10:57:25;5.07;;;4.67;;
38901;SDS011;24661;53.566;9.910;2022-07-25T10:59:52;5.67;;;4.87;;
38901;SDS011;24661;53.566;9.910;2022-07-25T11:02:17;5.27;;;4.77;;
38901;SDS011;24661;53.566;9.910;2022-07-25T11:04:44;5.87;;;5.30;;
38901;SDS011;24661;53.566;9.910;2022-07-25T11:07:21;6.03;;;4.73;;
38901;SDS011;24661;53.566;9.910;2022-07-25T11:09:54;7.17;;;5.07;;
38901;SDS011;24661;53.566;9.910;2022-07-25T11:12:21;6.20;;;5.60;;
38901;SDS011;24661;53.566;9.910;2022-07-25T11:14:47;9.20;;;7.93;;
38901;SDS011;24661;53.566;9.910;2022-07-25T11:17:14;7.40;;;6.10;;
38901;SDS011;24661;53.566;9.910;2022-07-25T11:19:59;5.93;;;5.17;;
38901;SDS011;24661;53.566;9.910;2022-07-25T11:22:27;6.20;;;5.60;;
38901;SDS011;24661;53.566;9.910;2022-07-25T11:24:53;11.47;;;5.77;;
38901;SDS011;24661;53.566;9.910;2022-07-25T11:27:32;16.77;;;10.53;;
38901;SDS011;24661;53.566;9.910;2022-07-25T11:30:07;7.00;;;6.30;;
38901;SDS011;24661;53.566;9.910;2022-07-25T11:32:39;7.53;;;6.13;;
38901;SDS011;24661;53.566;9.910;2022-07-25T11:35:14;5.77;;;4.77;;
38901;SDS011;24661;53.566;9.910;2022-07-25T11:37:42;7.37;;;5.33;;
38901;SDS011;24661;53.566;9.910;2022-07-25T11:40:12;6.50;;;5.53;;
38901;SDS011;24661;53.566;9.910;2022-07-25T11:42:47;8.37;;;5.73;;
38901;SDS011;24661;53.566;9.910;2022-07-25T11:45:16;7.67;;;5.53;;
38901;SDS011;24661;53.566;9.910;2022-07-25T11:47:47;5.97;;;5.37;;
38901;SDS011;24661;53.566;9.910;2022-07-25T11:50:15;5.93;;;5.33;;
38901;SDS011;24661;53.566;9.910;2022-07-25T11:52:41;5.80;;;5.27;;
38901;SDS011;24661;53.566;9.910;2022-07-25T11:55:08;8.50;;;5.83;;
38901;SDS011;24661;53.566;9.910;2022-07-25T11:57:41;9.40;;;5.30;;
38901;SDS011;24661;53.566;9.910;2022-07-25T12:00:09;6.80;;;5.37;;
38901;SDS011;24661;53.566;9.910;2022-07-25T12:02:46;9.40;;;5.00;;
38901;SDS011;24661;53.566;9.910;2022-07-25T12:05:14;5.30;;;4.80;;
38901;SDS011;24661;53.566;9.910;2022-07-25T12:07:50;6.70;;;4.57;;
38901;SDS011;24661;53.566;9.910;2022-07-25T12:10:21;8.23;;;5.43;;
38901;SDS011;24661;53.566;9.910;2022-07-25T12:12:57;9.50;;;5.80;;
38901;SDS011;24661;53.566;9.910;2022-07-25T12:15:28;6.30;;;5.07;;
38901;SDS011;24661;53.566;9.910;2022-07-25T12:17:56;7.93;;;5.57;;
38901;SDS011;24661;53.566;9.910;2022-07-25T12:20:33;8.30;;;5.97;;
38901;SDS011;24661;53.566;9.910;2022-07-25T12:23:01;5.87;;;4.80;;
38901;SDS011;24661;53.566;9.910;2022-07-25T12:25:32;6.07;;;5.10;;
38901;SDS011;24661;53.566;9.910;2022-07-25T12:28:01;7.20;;;5.53;;
38901;SDS011;24661;53.566;9.910;2022-07-25T12:30:27;6.40;;;5.47;;
38901;SDS011;24661;53.566;9.910;2022-07-25T12:32:54;6.63;;;5.40;;
38901;SDS011;24661;53.566;9.910;2022-07-25T12:35:20;6.70;;;5.00;;
38901;SDS011;24661;53.566;9.910;2022-07-25T12:37:46;9.57;;;5.87;;
38901;SDS011;24661;53.566;9.910;2022-07-25T12:40:13;7.33;;;4.80;;
38901;SDS011;24661;53.566;9.910;2022-07-25T12:42:39;6.73;;;5.60;;
38901;SDS011;24661;53.566;9.910;2022-07-25T12:45:05;6.13;;;4.70;;
38901;SDS011;24661;53.566;9.910;2022-07-25T12:47:32;8.00;;;5.40;;
38901;SDS011;24661;53.566;9.910;2022-07-25T12:49:57;5.80;;;5.30;;
38901;SDS011;24661;53.566;9.910;2022-07-25T12:52:23;6.07;;;5.03;;
38901;SDS011;24661;53.566;9.910;2022-07-25T12:54:49;7.97;;;4.93;;
38901;SDS011;24661;53.566;9.910;2022-07-25T12:57:15;8.67;;;5.13;;
38901;SDS011;24661;53.566;9.910;2022-07-25T12:59:41;6.47;;;5.27;;
38901;SDS011;24661;53.566;9.910;2022-07-25T13:02:07;7.13;;;5.20;;
38901;SDS011;24661;53.566;9.910;2022-07-25T13:04:33;6.00;;;5.00;;
38901;SDS011;24661;53.566;9.910;2022-07-25T13:06:59;9.60;;;5.83;;
38901;SDS011;24661;53.566;9.910;2022-07-25T13:09:25;7.10;;;5.13;;
38901;SDS011;24661;53.566;9.910;2022-07-25T13:11:51;8.10;;;5.20;;
38901;SDS011;24661;53.566;9.910;2022-07-25T13:14:17;8.17;;;4.97;;
38901;SDS011;24661;53.566;9.910;2022-07-25T13:16:44;5.73;;;4.93;;
38901;SDS011;24661;53.566;9.910;2022-07-25T13:19:11;7.77;;;5.10;;
38901;SDS011;24661;53.566;9.910;2022-07-25T13:21:37;5.07;;;4.57;;
38901;SDS011;24661;53.566;9.910;2022-07-25T13:24:03;6.53;;;5.70;;
38901;SDS011;24661;53.566;9.910;2022-07-25T13:26:29;7.73;;;5.53;;
38901;SDS011;24661;53.566;9.910;2022-07-25T13:28:56;6.77;;;5.70;;
38901;SDS011;24661;53.566;9.910;2022-07-25T13:31:22;6.10;;;5.50;;
38901;SDS011;24661;53.566;9.910;2022-07-25T13:33:47;7.53;;;5.23;;
38901;SDS011;24661;53.566;9.910;2022-07-25T13:36:14;7.30;;;5.00;;
38901;SDS011;24661;53.566;9.910;2022-07-25T13:38:40;6.60;;;5.47;;
38901;SDS011;24661;53.566;9.910;2022-07-25T13:41:07;7.57;;;5.77;;
38901;SDS011;24661;53.566;9.910;2022-07-25T13:43:33;7.60;;;5.13;;
38901;SDS011;24661;53.566;9.910;2022-07-25T13:45:59;6.73;;;4.87;;
38901;SDS011;24661;53.566;9.910;2022-07-25T13:48:26;9.57;;;5.17;;
38901;SDS011;24661;53.566;9.910;2022-07-25T13:50:52;9.37;;;6.20;;
38901;SDS011;24661;53.566;9.910;2022-07-25T13:53:19;8.17;;;5.30;;
38901;SDS011;24661;53.566;9.910;2022-07-25T13:55:45;6.70;;;5.00;;
38901;SDS011;24661;53.566;9.910;2022-07-25T13:58:11;10.87;;;5.63;;
38901;SDS011;24661;53.566;9.910;2022-07-25T14:00:36;8.77;;;4.90;;
38901;SDS011;24661;53.566;9.910;2022-07-25T14:03:02;6.73;;;5.13;;
38901;SDS011;24661;53.566;9.910;2022-07-25T14:05:28;7.13;;;5.70;;
38901;SDS011;24661;53.566;9.910;2022-07-25T14:07:53;9.00;;;5.63;;
38901;SDS011;24661;53.566;9.910;2022-07-25T14:10:19;8.83;;;6.37;;
38901;SDS011;24661;53.566;9.910;2022-07-25T14:12:44;8.57;;;6.53;;
38901;SDS011;24661;53.566;9.910;2022-07-25T14:15:10;11.00;;;7.43;;
38901;SDS011;24661;53.566;9.910;2022-07-25T14:17:36;11.00;;;6.47;;
38901;SDS011;24661;53.566;9.910;2022-07-25T14:20:02;12.70;;;6.03;;
38901;SDS011;24661;53.566;9.910;2022-07-25T14:22:29;7.30;;;5.57;;
38901;SDS011;24661;53.566;9.910;2022-07-25T14:24:55;10.67;;;6.73;;
38901;SDS011;24661;53.566;9.910;2022-07-25T14:27:20;8.17;;;7.10;;
38901;SDS011;24661;53.566;9.910;2022-07-25T14:29:47;10.80;;;7.27;;
38901;SDS011;24661;53.566;9.910;2022-07-25T14:32:12;13.70;;;6.97;;
38901;SDS011;24661;53.566;9.910;2022-07-25T14:34:38;15.77;;;6.23;;
38901;SDS011;24661;53.566;9.910;2022-07-25T14:37:04;10.53;;;6.23;;
38901;SDS011;24661;53.566;9.910;2022-07-25T14:39:31;9.40;;;4.87;;
38901;SDS011;24661;53.566;9.910;2022-07-25T14:41:57;5.20;;;4.43;;
38901;SDS011;24661;53.566;9.910;2022-07-25T14:44:23;7.27;;;5.27;;
38901;SDS011;24661;53.566;9.910;2022-07-25T14:46:51;8.77;;;4.97;;
38901;SDS011;24661;53.566;9.910;2022-07-25T14:49:17;8.03;;;5.73;;
38901;SDS011;24661;53.566;9.910;2022-07-25T14:51:42;6.73;;;4.70;;
38901;SDS011;24661;53.566;9.910;2022-07-25T14:54:09;10.33;;;5.67;;
38901;SDS011;24661;53.566;9.910;2022-07-25T14:56:36;10.30;;;4.93;;
38901;SDS011;24661;53.566;9.910;2022-07-25T14:59:03;11.73;;;5.97;;
38901;SDS011;24661;53.566;9.910;2022-07-25T15:01:29;8.87;;;4.80;;
38901;SDS011;24661;53.566;9.910;2022-07-25T15:03:55;7.17;;;3.93;;
38901;SDS011;24661;53.566;9.910;2022-07-25T15:06:21;9.17;;;4.40;;
38901;SDS011;24661;53.566;9.910;2022-07-25T15:08:47;7.70;;;3.70;;
38901;SDS011;24661;53.566;9.910;2022-07-25T15:11:15;7.13;;;3.60;;
38901;SDS011;24661;53.566;9.910;2022-07-25T15:13:41;8.07;;;4.17;;
38901;SDS011;24661;53.566;9.910;2022-07-25T15:16:07;6.80;;;4.13;;
38901;SDS011;24661;53.566;9.910;2022-07-25T15:18:34;7.97;;;4.03;;
38901;SDS011;24661;53.566;9.910;2022-07-25T15:20:59;9.47;;;3.70;;
38901;SDS011;24661;53.566;9.910;2022-07-25T15:23:25;8.33;;;3.50;;
38901;SDS011;24661;53.566;9.910;2022-07-25T15:25:51;13.63;;;4.00;;
38901;SDS011;24661;53.566;9.910;2022-07-25T15:28:18;10.50;;;4.77;;
38901;SDS011;24661;53.566;9.910;2022-07-25T15:30:44;11.57;;;4.00;;